createdAt,value
2022-12-06T00:01:23.362Z,101589.97
2022-12-06T00:03:55.103Z,101590.72
2022-12-06T00:06:23.789Z,101588.94
2022-12-06T00:08:51.227Z,101578.41
2022-12-06T00:11:22.169Z,101583.63
2022-12-06T00:13:52.920Z,101592.34
2022-12-06T00:16:19.677Z,101588.75
2022-12-06T00:18:46.755Z,101592.25
2022-12-06T00:21:17.754Z,101584.16
2022-12-06T00:23:50.112Z,101586.63
2022-12-06T00:26:17.270Z,101583.13
2022-12-06T00:28:44.004Z,101568.38
2022-12-06T00:31:15.173Z,101578.59
2022-12-06T00:33:42.095Z,101581.16
2022-12-06T00:36:12.367Z,101583.72
2022-12-06T00:38:38.687Z,101581.31
2022-12-06T00:41:13.885Z,101572.91
2022-12-06T00:43:40.970Z,101580.09
2022-12-06T00:46:09.438Z,101571.41
2022-12-06T00:48:36.132Z,101574.81
2022-12-06T00:51:02.776Z,101567.03
2022-12-06T00:53:29.506Z,101568.47
2022-12-06T00:55:56.356Z,101567.53
2022-12-06T00:58:23.107Z,101566.56
2022-12-06T01:00:50.745Z,101564.66
2022-12-06T01:03:17.479Z,101572.41
2022-12-06T01:05:49.133Z,101568.81
2022-12-06T01:08:17.523Z,101564.28
2022-12-06T01:10:52.399Z,101554.53
2022-12-06T01:13:19.081Z,101559.53
2022-12-06T01:15:45.528Z,101570.03
2022-12-06T01:18:12.226Z,101567.59
2022-12-06T01:20:38.679Z,101566.53
2022-12-06T01:23:05.183Z,101555.94
2022-12-06T01:25:35.882Z,101555.38
2022-12-06T01:28:02.765Z,101544.84
2022-12-06T01:30:29.579Z,101547.97
2022-12-06T01:32:56.344Z,101557.56
2022-12-06T01:35:22.987Z,101558.19
2022-12-06T01:37:49.446Z,101559.03
2022-12-06T01:40:15.882Z,101557.13
2022-12-06T01:42:42.346Z,101560.53
2022-12-06T01:45:10.222Z,101549.28
2022-12-06T01:47:43.366Z,101558.47
2022-12-06T01:50:22.493Z,101563.66
2022-12-06T01:52:58.058Z,101556.44
2022-12-06T01:55:32.347Z,101541.88
2022-12-06T01:58:04.670Z,101547.09
2022-12-06T02:00:31.237Z,101505.84
2022-12-06T02:03:00.495Z,101548.38
2022-12-06T02:05:28.658Z,101558.69
2022-12-06T02:07:56.851Z,101547.63
2022-12-06T02:10:23.619Z,101545.81
2022-12-06T02:12:55.009Z,101539.78
2022-12-06T02:15:29.279Z,101545.72
2022-12-06T02:18:12.139Z,101543.81
2022-12-06T02:20:46.855Z,101531.31
2022-12-06T02:23:44.155Z,101536.44
2022-12-06T02:26:25.201Z,101522.41
2022-12-06T02:29:20.035Z,101520.63
2022-12-06T02:32:07.799Z,101518.91
2022-12-06T02:34:52.552Z,101526.00
2022-12-06T02:37:25.947Z,101515.59
2022-12-06T02:40:15.835Z,101517.09
2022-12-06T02:42:49.396Z,101517.41
2022-12-06T02:45:21.080Z,101525.16
2022-12-06T02:47:50.183Z,101526.00
2022-12-06T02:50:19.790Z,101499.44
2022-12-06T02:52:49.690Z,101517.41
2022-12-06T02:55:18.085Z,101524.13
2022-12-06T02:57:47.419Z,101503.59
2022-12-06T03:00:34.976Z,101516.91
2022-12-06T03:03:20.186Z,101514.16
2022-12-06T03:06:01.992Z,101517.84
2022-12-06T03:08:36.409Z,101518.16
2022-12-06T03:11:03.364Z,101518.16
2022-12-06T03:13:56.073Z,101519.97
2022-12-06T03:16:41.240Z,101521.47
2022-12-06T03:19:21.262Z,101507.44
2022-12-06T03:22:03.037Z,101490.13
2022-12-06T03:24:33.777Z,101497.97
2022-12-06T03:27:04.450Z,101502.34
2022-12-06T03:29:33.381Z,101503.28
2022-12-06T03:32:03.674Z,101510.94
2022-12-06T03:34:32.733Z,101513.13
2022-12-06T03:37:01.797Z,101517.22
2022-12-06T03:39:37.790Z,101510.50
2022-12-06T03:42:04.804Z,101502.66
2022-12-06T03:44:31.429Z,101510.28
2022-12-06T03:47:05.016Z,101499.16
2022-12-06T03:49:38.546Z,101509.44
2022-12-06T03:52:05.293Z,101508.69
2022-12-06T03:54:31.792Z,101500.84
2022-12-06T03:56:58.352Z,101498.94
2022-12-06T03:59:24.819Z,101506.59
2022-12-06T04:01:51.498Z,101493.44
2022-12-06T04:04:18.073Z,101496.94
2022-12-06T04:06:44.624Z,101495.22
2022-12-06T04:09:29.333Z,101498.63
2022-12-06T04:11:55.985Z,101492.69
2022-12-06T04:14:22.454Z,101491.81
2022-12-06T04:17:07.606Z,101485.03
2022-12-06T04:19:34.068Z,101487.38
2022-12-06T04:22:18.798Z,101476.25
2022-12-06T04:24:45.250Z,101480.59
2022-12-06T04:27:30.781Z,101486.63
2022-12-06T04:30:16.092Z,101488.22
2022-12-06T04:33:00.966Z,101471.88
2022-12-06T04:35:45.765Z,101487.47
2022-12-06T04:38:30.782Z,101480.59
2022-12-06T04:40:57.254Z,101485.66
2022-12-06T04:43:41.938Z,101477.94
2022-12-06T04:46:14.308Z,101476.75
2022-12-06T04:48:44.568Z,101476.34
2022-12-06T04:51:13.945Z,101476.38
2022-12-06T04:53:40.423Z,101472.41
2022-12-06T04:56:07.127Z,101480.38
2022-12-06T04:58:33.633Z,101478.66
2022-12-06T05:01:00.204Z,101470.72
2022-12-06T05:03:27.161Z,101477.63
2022-12-06T05:05:53.933Z,101468.91
2022-12-06T05:08:20.501Z,101471.88
2022-12-06T05:10:48.618Z,101469.75
2022-12-06T05:13:18.880Z,101479.41
2022-12-06T05:15:52.500Z,101468.22
2022-12-06T05:18:19.391Z,101462.22
2022-12-06T05:20:45.993Z,101469.97
2022-12-06T05:23:12.799Z,101466.38
2022-12-06T05:25:39.426Z,101472.72
2022-12-06T05:28:06.132Z,101465.72
2022-12-06T05:30:32.829Z,101470.94
2022-12-06T05:32:59.299Z,101476.34
2022-12-06T05:35:25.965Z,101484.28
2022-12-06T05:37:52.399Z,101467.91
2022-12-06T05:40:18.900Z,101471.31
2022-12-06T05:42:45.404Z,101466.97
2022-12-06T05:45:12.156Z,101473.69
2022-12-06T05:47:39.764Z,101465.81
2022-12-06T05:50:06.810Z,101461.84
2022-12-06T05:52:33.236Z,101466.03
2022-12-06T05:55:00.039Z,101475.69
2022-12-06T05:57:26.833Z,101465.47
2022-12-06T05:59:53.297Z,101480.97
2022-12-06T06:02:19.862Z,101465.47
2022-12-06T06:04:46.378Z,101458.59
2022-12-06T06:07:12.809Z,101468.34
2022-12-06T06:09:39.199Z,101458.88
2022-12-06T06:12:12.074Z,101460.47
2022-12-06T06:14:38.999Z,101483.06
2022-12-06T06:17:05.447Z,101473.00
2022-12-06T06:19:31.978Z,101458.88
2022-12-06T06:21:58.468Z,101465.97
2022-12-06T06:24:24.860Z,101464.38
2022-12-06T06:26:51.305Z,101463.72
2022-12-06T06:29:17.761Z,101469.69
2022-12-06T06:31:44.249Z,101481.97
2022-12-06T06:34:12.840Z,101481.03
2022-12-06T06:36:44.078Z,101474.41
2022-12-06T06:39:12.403Z,101483.22
2022-12-06T06:41:38.876Z,101473.13
2022-12-06T06:44:05.365Z,101482.47
2022-12-06T06:46:32.128Z,101489.78
2022-12-06T06:48:58.616Z,101498.19
2022-12-06T06:51:25.129Z,101487.13
2022-12-06T06:53:51.639Z,101486.28
2022-12-06T06:56:18.299Z,101500.31
2022-12-06T06:58:44.748Z,101494.44
2022-12-06T07:01:17.580Z,101500.41
2022-12-06T07:03:44.269Z,101496.13
2022-12-06T07:06:11.973Z,101500.50
2022-12-06T07:08:40.094Z,101509.59
2022-12-06T07:11:06.519Z,101487.19
2022-12-06T07:13:32.989Z,101498.13
2022-12-06T07:15:59.503Z,101504.47
2022-12-06T07:18:26.094Z,101505.31
2022-12-06T07:21:00.764Z,101491.31
2022-12-06T07:23:27.465Z,101492.25
2022-12-06T07:26:06.184Z,101497.78
2022-12-06T07:28:35.822Z,101502.84
2022-12-06T07:31:14.640Z,101487.81
2022-12-06T07:33:42.737Z,101502.13
2022-12-06T07:36:12.813Z,101497.22
2022-12-06T07:38:41.501Z,101499.19
2022-12-06T07:41:30.635Z,101491.34
2022-12-06T07:44:16.978Z,101493.91
2022-12-06T07:46:43.898Z,101498.34
2022-12-06T07:49:11.076Z,101494.66
2022-12-06T07:51:38.158Z,101492.09
2022-12-06T07:54:04.702Z,101488.78
2022-12-06T07:56:31.213Z,101496.00
2022-12-06T07:58:57.756Z,101493.22
2022-12-06T08:01:24.627Z,101491.16
2022-12-06T08:03:51.215Z,101493.72
2022-12-06T08:06:17.786Z,101497.41
2022-12-06T08:08:44.334Z,101501.47
2022-12-06T08:11:11.092Z,101488.06
2022-12-06T08:13:38.300Z,101512.06
2022-12-06T08:16:12.246Z,101503.38
2022-12-06T08:18:40.108Z,101518.13
2022-12-06T08:21:07.751Z,101509.59
2022-12-06T08:23:35.589Z,101517.28
2022-12-06T08:26:05.450Z,101515.38
2022-12-06T08:28:33.699Z,101511.22
2022-12-06T08:31:03.312Z,101501.94
2022-12-06T08:33:32.676Z,101518.97
2022-12-06T08:35:59.283Z,101515.84
2022-12-06T08:38:26.006Z,101513.19
2022-12-06T08:40:52.531Z,101520.13
2022-12-06T08:43:19.076Z,101517.47
2022-12-06T08:45:51.343Z,101515.75
2022-12-06T08:48:18.463Z,101515.94
2022-12-06T08:50:44.894Z,101513.56
2022-12-06T08:53:11.419Z,101529.09
2022-12-06T08:55:38.710Z,101513.69
2022-12-06T08:58:05.226Z,101509.53
2022-12-06T09:00:31.765Z,101524.19
2022-12-06T09:02:58.407Z,101524.19
2022-12-06T09:05:24.869Z,101530.25
2022-12-06T09:07:51.476Z,101532.25
2022-12-06T09:10:17.956Z,101526.94
2022-12-06T09:12:44.404Z,101535.63
2022-12-06T09:15:11.273Z,101528.75
2022-12-06T09:17:37.809Z,101537.66
2022-12-06T09:20:06.382Z,101534.06
2022-12-06T09:22:33.222Z,101515.03
2022-12-06T09:24:59.704Z,101531.50
2022-12-06T09:27:26.133Z,101520.50
2022-12-06T09:29:53.069Z,101541.25
2022-12-06T09:32:19.493Z,101523.34
2022-12-06T09:34:45.982Z,101549.09
2022-12-06T09:37:14.034Z,101546.53
2022-12-06T09:39:51.731Z,101545.69
2022-12-06T09:42:43.057Z,101529.78
2022-12-06T09:45:15.891Z,101547.47
2022-12-06T09:48:06.411Z,101527.31
2022-12-06T09:50:53.565Z,101527.91
2022-12-06T09:53:36.281Z,101536.88
2022-12-06T09:56:26.260Z,101537.34
2022-12-06T09:59:07.784Z,101531.59
2022-12-06T10:01:37.180Z,101524.19
2022-12-06T10:04:03.706Z,101529.47
2022-12-06T10:06:59.379Z,101529.97
2022-12-06T10:09:43.798Z,101529.00
2022-12-06T10:12:55.193Z,101527.88
2022-12-06T10:15:38.467Z,101522.56
2022-12-06T10:18:40.486Z,101520.78
2022-12-06T10:21:32.074Z,101519.75
2022-12-06T10:24:04.588Z,101524.28
2022-12-06T10:26:33.943Z,101520.69
2022-12-06T10:29:27.388Z,101515.56
2022-12-06T10:32:00.030Z,101523.44
2022-12-06T10:34:29.244Z,101520.69
2022-12-06T10:37:28.494Z,101509.50
2022-12-06T10:40:17.220Z,101511.56
2022-12-06T10:43:02.330Z,101518.75
2022-12-06T10:45:53.362Z,101514.22
2022-12-06T10:48:27.155Z,101504.78
2022-12-06T10:51:02.734Z,101508.06
2022-12-06T10:53:37.732Z,101517.53
2022-12-06T10:56:16.855Z,101505.41
2022-12-06T10:58:58.425Z,101500.97
2022-12-06T11:01:29.260Z,101507.59
2022-12-06T11:04:01.672Z,101499.72
2022-12-06T11:06:37.234Z,101503.91
2022-12-06T11:09:23.310Z,101502.84
2022-12-06T11:11:50.670Z,101497.75
2022-12-06T11:14:38.808Z,101500.06
2022-12-06T11:17:19.411Z,101508.97
2022-12-06T11:19:50.921Z,101497.75
2022-12-06T11:22:50.524Z,101498.28
2022-12-06T11:25:42.454Z,101446.63
2022-12-06T11:28:22.122Z,101495.84
2022-12-06T11:30:54.423Z,101472.50
2022-12-06T11:33:30.084Z,101419.50
2022-12-06T11:36:02.533Z,101469.00
2022-12-06T11:38:34.015Z,101464.56
2022-12-06T11:41:08.411Z,101423.09
2022-12-06T11:43:36.932Z,101422.13
2022-12-06T11:46:06.678Z,101417.88
2022-12-06T11:48:35.676Z,101486.88
2022-12-06T11:51:02.361Z,101479.50
2022-12-06T11:53:39.116Z,101469.09
2022-12-06T11:56:19.963Z,101473.47
2022-12-06T11:59:06.934Z,101474.50
2022-12-06T12:01:40.302Z,101474.81
2022-12-06T12:04:40.775Z,101465.16
2022-12-06T12:07:13.070Z,101466.28
2022-12-06T12:09:50.870Z,101463.75
2022-12-06T12:12:46.395Z,101447.19
2022-12-06T12:15:19.881Z,101462.88
2022-12-06T12:17:49.942Z,101453.50
2022-12-06T12:20:39.227Z,101460.25
2022-12-06T12:23:14.576Z,101456.06
2022-12-06T12:25:44.008Z,101462.31
2022-12-06T12:28:35.073Z,101453.34
2022-12-06T12:31:22.949Z,101448.53
2022-12-06T12:34:22.867Z,101440.59
2022-12-06T12:36:57.692Z,101441.53
2022-12-06T12:39:39.046Z,101437.34
2022-12-06T12:42:27.569Z,101429.75
2022-12-06T12:44:59.740Z,101399.34
2022-12-06T12:47:28.136Z,101399.25
2022-12-06T12:50:20.477Z,101408.53
2022-12-06T12:52:49.958Z,101423.63
2022-12-06T12:55:26.130Z,101389.63
2022-12-06T12:58:06.201Z,101409.94
2022-12-06T13:00:42.641Z,101407.56
2022-12-06T13:03:49.500Z,101435.84
2022-12-06T13:06:06.093Z,101386.81
2022-12-06T13:08:39.449Z,101362.78
2022-12-06T13:11:09.397Z,101395.28
2022-12-06T13:13:55.510Z,101385.28
2022-12-06T13:16:31.102Z,101404.94
2022-12-06T13:18:59.098Z,101358.81
2022-12-06T13:21:41.241Z,101380.09
2022-12-06T13:24:26.220Z,101422.31
2022-12-06T13:27:02.571Z,101399.34
2022-12-06T13:29:54.511Z,101412.28
2022-12-06T13:32:29.765Z,101399.16
2022-12-06T13:35:27.535Z,101396.03
2022-12-06T13:37:57.965Z,101411.91
2022-12-06T13:40:35.337Z,101418.97
2022-12-06T13:43:07.326Z,101356.25
2022-12-06T13:45:53.801Z,101439.13
2022-12-06T13:48:46.203Z,101414.38
2022-12-06T13:54:21.024Z,101415.91
2022-12-06T13:57:02.576Z,101352.25
2022-12-06T13:59:35.490Z,101367.78
2022-12-06T14:02:51.483Z,101424.28
2022-12-06T14:09:03.363Z,101423.06
2022-12-06T14:11:36.580Z,101408.38
2022-12-06T14:14:16.877Z,101377.38
2022-12-06T14:16:54.638Z,101413.13
2022-12-06T14:19:45.897Z,101388.91
2022-12-06T14:22:22.166Z,101357.22
2022-12-06T14:25:18.970Z,101332.47
2022-12-06T14:27:53.042Z,101344.00
2022-12-06T14:30:26.163Z,101399.06
2022-12-06T14:33:00.812Z,101377.63
2022-12-06T14:35:40.955Z,101337.66
2022-12-06T14:38:27.604Z,101426.03
2022-12-06T14:41:13.444Z,101382.31
2022-12-06T14:43:42.562Z,101349.47
2022-12-06T14:46:17.302Z,101380.78
2022-12-06T14:49:06.137Z,101360.38
2022-12-06T14:51:43.821Z,101353.84
2022-12-06T14:54:32.979Z,101388.03
2022-12-06T14:57:03.496Z,101372.25
2022-12-06T15:00:13.966Z,101373.09
2022-12-06T15:02:29.877Z,101384.00
2022-12-06T15:05:00.141Z,101387.53
2022-12-06T15:07:39.266Z,101391.16
2022-12-06T15:10:35.042Z,101388.22
2022-12-06T15:13:15.968Z,101340.81
2022-12-06T15:16:04.307Z,101366.81
2022-12-06T15:18:43.778Z,101348.28
2022-12-06T15:21:20.278Z,101397.88
2022-12-06T15:23:52.883Z,101355.66
2022-12-06T15:26:21.135Z,101382.63
2022-12-06T15:28:49.096Z,101355.97
2022-12-06T15:31:28.147Z,101409.88
2022-12-06T15:33:56.194Z,101368.06
2022-12-06T15:36:26.978Z,101390.19
2022-12-06T15:38:55.907Z,101383.25
2022-12-06T15:41:25.419Z,101413.19
2022-12-06T15:43:53.405Z,101403.38
2022-12-06T15:46:23.755Z,101403.41
2022-12-06T15:48:51.525Z,101403.97
2022-12-06T15:51:24.813Z,101389.94
2022-12-06T15:53:52.217Z,101384.41
2022-12-06T15:56:21.496Z,101401.56
2022-12-06T15:58:49.095Z,101391.94
2022-12-06T16:01:24.628Z,101402.09
2022-12-06T16:03:54.163Z,101399.00
2022-12-06T16:06:23.578Z,101403.13
2022-12-06T16:08:50.137Z,101399.16
2022-12-06T16:11:19.155Z,101382.66
2022-12-06T16:13:45.607Z,101403.78
2022-12-06T16:16:13.029Z,101406.72
2022-12-06T16:18:39.634Z,101407.13
2022-12-06T16:21:06.411Z,101395.44
2022-12-06T16:26:41.111Z,101396.00
2022-12-06T16:29:10.078Z,101399.88
2022-12-06T16:31:38.945Z,101395.09
2022-12-06T16:34:05.626Z,101390.22
2022-12-06T16:36:32.733Z,101401.88
2022-12-06T16:39:02.067Z,101393.41
2022-12-06T16:41:32.537Z,101405.88
2022-12-06T16:43:59.962Z,101396.47
2022-12-06T16:46:30.032Z,101391.25
2022-12-06T16:49:22.114Z,101395.34
2022-12-06T16:51:47.563Z,101386.38
2022-12-06T16:54:15.079Z,101384.06
2022-12-06T16:56:41.861Z,101394.50
2022-12-06T16:59:14.336Z,101378.78
2022-12-06T17:01:48.444Z,101388.00
2022-12-06T17:04:14.848Z,101386.91
2022-12-06T17:06:41.411Z,101385.50
2022-12-06T17:09:07.823Z,101386.13
2022-12-06T17:11:53.968Z,101380.78
2022-12-06T17:14:22.801Z,101385.47
2022-12-06T17:16:49.355Z,101399.28
2022-12-06T17:19:18.283Z,101390.25
2022-12-06T17:21:46.168Z,101355.06
2022-12-06T17:24:13.891Z,101392.50
2022-12-06T17:26:42.938Z,101390.72
2022-12-06T17:29:10.076Z,101391.28
2022-12-06T17:31:37.793Z,101387.72
2022-12-06T17:34:05.428Z,101391.97
2022-12-06T17:36:32.131Z,101396.25
2022-12-06T17:38:58.682Z,101388.50
2022-12-06T17:41:51.604Z,101395.16
2022-12-06T17:44:18.886Z,101389.09
2022-12-06T17:46:45.357Z,101379.66
2022-12-06T17:49:17.295Z,101387.81
2022-12-06T17:51:43.932Z,101391.22
2022-12-06T17:54:10.545Z,101383.31
2022-12-06T17:56:45.548Z,101390.38
2022-12-06T17:59:20.635Z,101382.47
2022-12-06T18:04:34.585Z,101357.00
2022-12-06T18:07:01.127Z,101359.81
2022-12-06T18:09:27.692Z,101369.25
2022-12-06T18:11:55.699Z,101361.63
2022-12-06T18:14:22.389Z,101345.50
2022-12-06T18:16:49.076Z,101351.53
2022-12-06T18:19:17.973Z,101357.66
2022-12-06T18:21:45.514Z,101350.19
2022-12-06T18:24:23.865Z,101347.38
2022-12-06T18:26:51.663Z,101350.25
2022-12-06T18:29:22.041Z,101340.88
2022-12-06T18:31:49.521Z,101327.25
2022-12-06T18:34:16.294Z,101336.59
2022-12-06T18:36:42.844Z,101340.28
2022-12-06T18:39:15.294Z,101325.72
2022-12-06T18:41:43.598Z,101323.16
2022-12-06T18:44:10.513Z,101330.13
2022-12-06T18:46:38.814Z,101323.16
2022-12-06T18:49:05.699Z,101317.97
2022-12-06T18:51:35.291Z,101317.72
2022-12-06T18:54:04.490Z,101312.38
2022-12-06T18:56:32.510Z,101318.16
2022-12-06T18:59:00.204Z,101311.09
2022-12-06T19:01:29.276Z,101306.16
2022-12-06T19:03:59.542Z,101304.53
2022-12-06T19:06:27.743Z,101313.66
2022-12-06T19:08:57.024Z,101316.19
2022-12-06T19:11:23.842Z,101306.91
2022-12-06T19:13:55.558Z,101313.97
2022-12-06T19:16:46.370Z,101307.84
2022-12-06T19:19:16.791Z,101306.38
2022-12-06T19:21:45.699Z,101288.06
2022-12-06T19:24:13.850Z,101292.41
2022-12-06T19:26:40.374Z,101278.53
2022-12-06T19:29:06.922Z,101301.72
2022-12-06T19:31:33.367Z,101290.91
2022-12-06T19:33:59.881Z,101285.47
2022-12-06T19:36:28.854Z,101292.91
2022-12-06T19:39:05.899Z,101292.56
2022-12-06T19:41:53.529Z,101302.00
2022-12-06T19:44:20.471Z,101292.09
2022-12-06T19:46:48.262Z,101298.72
2022-12-06T19:49:16.911Z,101293.09
2022-12-06T19:51:45.500Z,101283.13
2022-12-06T19:54:16.376Z,101284.44
2022-12-06T19:56:42.856Z,101272.00
2022-12-06T19:59:12.360Z,101268.16
2022-12-06T20:01:42.061Z,101259.13
2022-12-06T20:04:09.480Z,101270.78
2022-12-06T20:06:36.643Z,101265.16
2022-12-06T20:09:03.811Z,101253.84
2022-12-06T20:11:49.249Z,101251.50
2022-12-06T20:14:17.854Z,101244.94
2022-12-06T20:16:44.664Z,101237.28
2022-12-06T20:19:13.774Z,101242.06
2022-12-06T20:21:40.193Z,101226.63
2022-12-06T20:24:07.109Z,101228.84
2022-12-06T20:26:33.782Z,101215.06
2022-12-06T20:29:00.809Z,101218.94
2022-12-06T20:31:29.510Z,101212.91
2022-12-06T20:33:58.275Z,101213.31
2022-12-06T20:36:26.142Z,101207.09
2022-12-06T20:38:53.691Z,101204.44
2022-12-06T20:41:22.635Z,101195.59
2022-12-06T20:43:50.983Z,101206.66
2022-12-06T20:46:20.943Z,101201.25
2022-12-06T20:48:47.380Z,101191.44
2022-12-06T20:51:25.239Z,101198.25
2022-12-06T20:53:57.429Z,101186.75
2022-12-06T20:56:28.039Z,101183.91
2022-12-06T20:58:57.396Z,101185.53
2022-12-06T21:01:30.388Z,101181.94
2022-12-06T21:03:57.533Z,101189.56
2022-12-06T21:06:25.185Z,101182.59
2022-12-06T21:08:51.996Z,101182.22
2022-12-06T21:11:23.105Z,101172.41
2022-12-06T21:13:55.263Z,101162.69
2022-12-06T21:16:27.625Z,101152.03
2022-12-06T21:19:04.394Z,101159.56
2022-12-06T21:21:34.528Z,101150.25
2022-12-06T21:24:02.073Z,101149.28
2022-12-06T21:26:29.953Z,101144.56
2022-12-06T21:28:57.034Z,101141.84
2022-12-06T21:31:31.654Z,101131.34
2022-12-06T21:33:58.345Z,101127.00
2022-12-06T21:36:25.319Z,101152.03
2022-12-06T21:38:52.214Z,101138.06
2022-12-06T21:41:19.339Z,101145.81
2022-12-06T21:43:46.122Z,101139.84
2022-12-06T21:46:15.515Z,101139.34
2022-12-06T21:48:42.489Z,101140.88
2022-12-06T21:51:11.297Z,101145.78
2022-12-06T21:53:38.431Z,101143.69
2022-12-06T21:56:07.586Z,101133.94
2022-12-06T21:58:35.131Z,101131.31
2022-12-06T22:01:10.065Z,101127.44
2022-12-06T22:03:37.271Z,101122.06
2022-12-06T22:06:08.915Z,101114.69
2022-12-06T22:08:35.779Z,101108.75
2022-12-06T22:11:10.479Z,101120.31
2022-12-06T22:13:37.261Z,101109.94
2022-12-06T22:16:08.713Z,101103.22
2022-12-06T22:18:44.068Z,101104.16
2022-12-06T22:21:14.871Z,101098.47
2022-12-06T22:23:41.504Z,101102.03
2022-12-06T22:26:09.766Z,101091.47
2022-12-06T22:28:36.612Z,101091.69
2022-12-06T22:31:11.155Z,101101.28
2022-12-06T22:33:37.924Z,101093.50
2022-12-06T22:36:04.749Z,101084.59
2022-12-06T22:38:31.416Z,101082.91
2022-12-06T22:40:59.525Z,101074.13
2022-12-06T22:43:26.131Z,101089.56
2022-12-06T22:45:52.788Z,101080.59
2022-12-06T22:48:19.196Z,101083.34
2022-12-06T22:50:45.677Z,101078.59
2022-12-06T22:53:15.171Z,101065.09
2022-12-06T22:55:41.656Z,101047.50
2022-12-06T22:58:08.193Z,101076.66
2022-12-06T23:00:34.615Z,101050.09
2022-12-06T23:03:00.983Z,101047.34
2022-12-06T23:05:27.483Z,101038.56
2022-12-06T23:07:53.973Z,101054.66
2022-12-06T23:10:21.702Z,101051.03
2022-12-06T23:12:48.147Z,101064.09
2022-12-06T23:15:14.580Z,101048.50
2022-12-06T23:17:41.161Z,101057.59
2022-12-06T23:20:08.320Z,101048.00
2022-12-06T23:22:34.708Z,101054.97
2022-12-06T23:25:01.148Z,101042.91
2022-12-06T23:27:27.657Z,101043.41
2022-12-06T23:29:54.071Z,101045.97
2022-12-06T23:32:20.566Z,101047.66
2022-12-06T23:34:47.615Z,101039.81
2022-12-06T23:37:14.051Z,101034.44
2022-12-06T23:39:40.496Z,101029.47
2022-12-06T23:42:06.998Z,101036.22
2022-12-06T23:44:33.574Z,101028.63
2022-12-06T23:47:00.173Z,101025.34
2022-12-06T23:49:26.689Z,101033.06
2022-12-06T23:51:53.101Z,101011.56
2022-12-06T23:54:19.571Z,101015.69
2022-12-06T23:56:46.377Z,101012.09
2022-12-06T23:59:14.872Z,101008.31
